アテネ の空港の天気 - METARとTAF

アテネ国際空港 ( LGAV / ATH ) - ギリシャ アテネ
飛行場実況気象(Metar)
観測時間10/20 05:50 EEST (10/20 02:50 UTC)
風向・風速不定 1m/s
視程10km以上
天気現象
なし
気温10℃
湿度87%
気圧1018hPa
METARLGAV 200250Z VRB01KT CAVOK 10/08 Q1018 NOSIG
過去の天気等 Google飛行場航空写真 Wunderground天気予報

過去48時間のMETAR

飛行場予報(TAF)
発表時間: 10/20 02:00 EEST (10/19 23:00 UTC)
予報対象時間: 20日3時 EEST ~ 21日3時 EEST
風向・風速不定 2m/s
視程10km以上
少しの雲 雲底高度 760m
20日11時 EEST ~ 20日13時 EEST に徐々に
風向・風速東北東 5m/s
20日19時 EEST ~ 20日21時 EEST に徐々に
風向・風速不定 2m/s
TAF LGAV 192300Z 2000/2024 VRB03KT 9999 FEW025
BECMG 2008/2010 07010KT
BECMG 2016/2018 VRB03KT